Time;durP1;ratioP1;P1;durP2;ratioP2;P2;SDS_P1;SDS_P2;PMS_P1;PMS_P2;Temp;Humidity;BMP_temperature;BMP_pressure;BME280_temperature;BME280_humidity;BME280_pressure;Samples;Min_cycle;Max_cycle;Signal;HPM_P1;HPM_P2
2023/07/17 00:00:55;;;;;;;19.27;13.48;;;;;;;15.44;84.52;99266.53;4956051;28;20050;-65
2023/07/17 00:03:20;;;;;;;18.50;13.13;;;;;;;15.41;84.39;99269.50;4955842;28;20153;-63
2023/07/17 00:05:46;;;;;;;21.27;13.80;;;;;;;15.41;84.52;99258.75;4950755;28;20461;-68
2023/07/17 00:08:11;;;;;;;18.67;12.57;;;;;;;15.39;84.78;99271.50;4952365;28;20789;-63
2023/07/17 00:10:38;;;;;;;23.35;14.13;;;;;;;15.39;84.92;99259.91;4940141;28;20067;-64
2023/07/17 00:13:04;;;;;;;26.27;13.73;;;;;;;15.37;84.83;99252.00;4939886;28;20046;-64
2023/07/17 00:15:29;;;;;;;19.30;13.45;;;;;;;15.36;85.16;99261.03;4958507;28;20050;-64
2023/07/17 00:17:54;;;;;;;21.25;14.65;;;;;;;15.35;85.14;99248.59;4942855;28;20042;-74
2023/07/17 00:20:20;;;;;;;21.02;13.05;;;;;;;15.34;85.06;99263.06;4955909;28;20042;-75
2023/07/17 00:22:46;;;;;;;20.77;12.73;;;;;;;15.35;85.27;99285.38;4974324;28;20058;-73
2023/07/17 00:25:11;;;;;;;22.60;14.05;;;;;;;15.32;85.16;99262.34;4957532;28;20516;-65
2023/07/17 00:27:36;;;;;;;18.35;12.73;;;;;;;15.34;85.35;99257.69;4948004;28;20042;-65
2023/07/17 00:30:02;;;;;;;24.42;14.30;;;;;;;15.32;85.19;99258.81;4956765;28;20497;-65
2023/07/17 00:32:32;;;;;;;23.63;13.70;;;;;;;15.30;85.33;99256.28;4942752;28;20043;-65
2023/07/17 00:34:57;;;;;;;18.63;12.02;;;;;;;15.29;85.26;99254.56;4925299;28;20050;-64
2023/07/17 00:37:22;;;;;;;23.15;14.35;;;;;;;15.27;85.44;99257.41;4944894;28;20050;-64
2023/07/17 00:39:49;;;;;;;20.50;14.13;;;;;;;15.26;85.00;99254.88;4958122;28;20424;-71
2023/07/17 00:42:15;;;;;;;21.42;13.43;;;;;;;15.26;85.59;99254.88;4942826;28;20414;-72
2023/07/17 00:44:40;;;;;;;21.30;14.00;;;;;;;15.28;85.27;99255.56;4944439;28;20051;-71
2023/07/17 00:47:06;;;;;;;20.35;14.57;;;;;;;15.26;85.24;99260.25;4946790;28;20045;-72
2023/07/17 00:49:33;;;;;;;18.10;13.38;;;;;;;15.23;85.17;99261.41;4941481;28;20428;-70
2023/07/17 00:52:00;;;;;;;19.02;13.52;;;;;;;15.22;85.17;99264.25;4941218;28;20449;-71
2023/07/17 00:54:28;;;;;;;20.83;13.48;;;;;;;15.21;85.54;99262.53;4957475;28;20050;-71
2023/07/17 00:56:54;;;;;;;19.33;13.65;;;;;;;15.21;85.45;99262.53;4971479;28;20053;-71
2023/07/17 00:59:20;;;;;;;17.48;12.63;;;;;;;15.20;85.35;99287.69;4942215;28;20058;-72
2023/07/17 01:01:46;;;;;;;19.05;13.13;;;;;;;15.17;85.41;99261.97;4941203;28;20384;-71
2023/07/17 01:04:13;;;;;;;18.77;13.20;;;;;;;15.16;85.47;99262.13;4957162;28;20050;-71
2023/07/17 01:06:39;;;;;;;19.17;12.93;;;;;;;15.12;85.28;99232.03;4954613;28;20057;-72
2023/07/17 01:09:06;;;;;;;15.70;12.65;;;;;;;15.08;85.11;99262.03;4940989;28;20050;-71
2023/07/17 01:11:32;;;;;;;17.98;12.30;;;;;;;15.07;85.05;99276.44;4954263;28;20445;-70
2023/07/17 01:13:57;;;;;;;18.67;14.10;;;;;;;15.05;85.11;99263.16;4966904;28;20054;-70
2023/07/17 01:16:23;;;;;;;20.60;12.90;;;;;;;15.02;85.29;99267.97;4939302;28;20397;-70
2023/07/17 01:18:48;;;;;;;15.27;12.38;;;;;;;15.01;85.58;99267.13;4954134;28;20055;-72
2023/07/17 01:21:16;;;;;;;22.92;13.65;;;;;;;14.99;85.67;99273.66;4939120;28;20043;-71
2023/07/17 01:23:41;;;;;;;17.23;13.02;;;;;;;14.98;85.97;99274.66;4942750;28;20057;-72
2023/07/17 01:26:14;;;;;;;31.92;14.25;;;;;;;14.98;85.71;99283.53;4942435;28;20417;-73
2023/07/17 01:28:40;;;;;;;22.02;13.20;;;;;;;14.93;86.02;99295.69;4927514;28;20054;-72
2023/07/17 01:31:07;;;;;;;16.35;13.15;;;;;;;14.92;86.06;99267.16;4940053;28;20051;-72
2023/07/17 01:33:33;;;;;;;16.75;13.27;;;;;;;14.90;86.46;99281.56;4942356;28;20057;-72
2023/07/17 01:35:59;;;;;;;19.38;13.48;;;;;;;14.90;86.44;99253.88;4943141;28;20045;-72
2023/07/17 01:38:24;;;;;;;19.10;12.65;;;;;;;14.89;86.55;99263.81;4943008;28;20054;-72
2023/07/17 01:40:51;;;;;;;15.40;12.73;;;;;;;14.89;86.44;99279.06;4956532;28;20045;-72
2023/07/17 01:43:16;;;;;;;16.52;13.35;;;;;;;14.89;86.65;99273.69;4940018;28;20429;-71
2023/07/17 01:45:41;;;;;;;16.95;13.10;;;;;;;14.89;86.91;99276.38;4943231;28;20046;-72
2023/07/17 01:48:06;;;;;;;23.88;14.88;;;;;;;14.89;86.70;99279.91;4942484;28;20057;-72
2023/07/17 01:50:31;;;;;;;22.67;13.23;;;;;;;14.90;86.97;99276.19;4956951;28;20039;-65
2023/07/17 01:52:57;;;;;;;18.13;13.45;;;;;;;14.92;86.84;99283.25;4940877;28;20058;-66
2023/07/17 01:55:22;;;;;;;16.45;12.48;;;;;;;14.94;87.04;99281.28;4958922;28;20505;-62
2023/07/17 01:57:47;;;;;;;17.60;12.15;;;;;;;14.95;86.72;99294.56;4957524;28;20118;-62
2023/07/17 02:00:12;;;;;;;21.30;12.98;;;;;;;15.02;86.91;99267.97;4956170;28;20049;-64
2023/07/17 02:02:40;;;;;;;24.27;14.15;;;;;;;15.09;86.54;99275.31;4956272;28;20053;-62
2023/07/17 02:05:06;;;;;;;18.13;12.70;;;;;;;15.16;86.66;99273.72;4971767;28;20061;-64
2023/07/17 02:07:31;;;;;;;20.77;14.35;;;;;;;15.24;86.36;99289.06;4956189;28;20053;-66
2023/07/17 02:10:02;;;;;;;18.05;12.75;;;;;;;15.32;86.30;99275.78;4956095;28;20053;-65
2023/07/17 02:12:27;;;;;;;19.60;13.27;;;;;;;15.40;86.06;99286.63;4957519;28;20497;-67
2023/07/17 02:14:53;;;;;;;18.70;13.20;;;;;;;15.49;85.77;99274.13;4957202;28;20045;-66
2023/07/17 02:17:18;;;;;;;16.65;13.25;;;;;;;15.54;85.76;99280.78;4955063;28;20053;-66
2023/07/17 02:19:44;;;;;;;18.42;13.77;;;;;;;15.63;85.25;99305.06;4972216;28;20039;-68
2023/07/17 02:22:09;;;;;;;21.10;13.18;;;;;;;15.67;84.99;99284.97;4972218;28;20053;-68
2023/07/17 02:24:34;;;;;;;17.02;12.15;;;;;;;15.73;84.40;99290.56;4923792;28;20057;-66
2023/07/17 02:27:01;;;;;;;19.20;12.82;;;;;;;15.79;83.88;99289.97;4955871;28;20053;-64
2023/07/17 02:29:26;;;;;;;15.38;12.02;;;;;;;15.87;84.35;99289.22;4957923;28;20067;-64
2023/07/17 02:31:51;;;;;;;20.55;12.98;;;;;;;15.96;83.87;99294.50;4952012;28;20058;-64
2023/07/17 02:34:17;;;;;;;15.45;12.27;;;;;;;16.06;83.38;99285.53;4937716;28;20425;-64
2023/07/17 02:36:42;;;;;;;18.35;12.95;;;;;;;16.15;83.38;99288.13;4937106;28;20038;-63
2023/07/17 02:39:10;;;;;;;19.63;13.65;;;;;;;16.23;82.75;99315.13;4936310;28;20049;-64
2023/07/17 02:41:38;;;;;;;18.27;14.05;;;;;;;16.36;82.51;99298.63;4936073;28;20058;-65
2023/07/17 02:44:04;;;;;;;17.33;12.73;;;;;;;16.45;82.21;99297.69;4919982;28;20055;-65
2023/07/17 02:46:29;;;;;;;17.92;12.50;;;;;;;16.56;81.69;99301.97;4935924;28;20053;-65
2023/07/17 02:48:54;;;;;;;18.30;12.32;;;;;;;16.67;81.27;99301.75;4937204;28;20067;-66
2023/07/17 02:51:19;;;;;;;15.07;13.02;;;;;;;16.78;81.01;99295.25;4942383;28;20051;-65
2023/07/17 02:53:44;;;;;;;18.30;13.00;;;;;;;16.89;80.15;99301.25;4948090;28;20409;-65
2023/07/17 02:56:10;;;;;;;15.23;12.10;;;;;;;17.00;79.71;99289.34;4937033;28;20058;-65
2023/07/17 02:58:43;;;;;;;19.95;13.63;;;;;;;17.05;78.64;99312.09;4952099;28;20046;-66
2023/07/17 03:01:10;;;;;;;18.38;13.07;;;;;;;17.10;78.19;99254.22;4950765;28;20047;-66
2023/07/17 03:03:35;;;;;;;16.15;12.13;;;;;;;17.12;77.60;99296.16;4952166;28;20050;-66
2023/07/17 03:06:00;;;;;;;21.83;12.80;;;;;;;17.16;77.19;99296.66;4951137;28;20551;-65
2023/07/17 03:08:26;;;;;;;20.50;13.77;;;;;;;17.23;77.25;99335.44;4952381;28;20042;-65
2023/07/17 03:10:51;;;;;;;22.40;12.93;;;;;;;17.25;76.87;99296.59;4971479;28;20077;-65
2023/07/17 03:13:17;;;;;;;15.30;12.50;;;;;;;17.26;76.91;99292.88;4954214;28;20061;-66
2023/07/17 03:15:42;;;;;;;16.88;11.68;;;;;;;17.24;76.76;99289.50;4970687;28;20068;-67
2023/07/17 03:18:07;;;;;;;16.85;11.98;;;;;;;17.24;77.46;99288.66;4971441;28;20054;-69
2023/07/17 03:20:34;;;;;;;20.42;13.43;;;;;;;17.33;77.95;99295.75;4956306;28;20069;-66
2023/07/17 03:22:59;;;;;;;15.60;12.50;;;;;;;17.48;77.54;99296.84;4963451;28;20537;-70
2023/07/17 03:25:24;;;;;;;15.80;12.45;;;;;;;17.63;76.84;99295.25;4955303;28;20406;-69
2023/07/17 03:27:50;;;;;;;17.13;11.77;;;;;;;17.78;76.40;99304.41;4963475;28;20050;-70
2023/07/17 03:30:15;;;;;;;16.63;11.73;;;;;;;17.98;75.73;99304.13;4938445;28;20073;-70
2023/07/17 03:32:40;;;;;;;15.73;12.07;;;;;;;18.16;75.35;99296.75;4959494;28;20042;-69
2023/07/17 03:35:06;;;;;;;22.60;12.70;;;;;;;18.37;74.13;99310.59;4967714;28;20053;-70
2023/07/17 03:37:32;;;;;;;13.15;11.15;;;;;;;18.54;73.67;99307.91;4940950;28;20498;-71
2023/07/17 03:39:58;;;;;;;14.57;11.88;;;;;;;18.69;72.73;99306.25;4955790;28;20046;-70
2023/07/17 03:42:23;;;;;;;15.45;12.07;;;;;;;18.84;72.18;99304.56;4970693;28;20042;-69
2023/07/17 03:44:48;;;;;;;15.45;11.48;;;;;;;19.01;71.66;99298.09;4955715;28;20436;-69
2023/07/17 03:47:14;;;;;;;15.15;11.43;;;;;;;19.15;70.86;99299.28;4970994;28;20057;-69
2023/07/17 03:49:40;;;;;;;15.20;12.25;;;;;;;19.26;70.08;99301.59;4973857;28;20053;-69
2023/07/17 03:52:06;;;;;;;18.63;12.65;;;;;;;19.36;69.71;99290.59;4974733;28;20038;-69
2023/07/17 03:54:31;;;;;;;19.55;11.95;;;;;;;19.44;69.82;99293.25;4959623;28;20057;-70
2023/07/17 03:56:57;;;;;;;20.70;12.80;;;;;;;19.53;69.38;99300.34;4957937;28;20050;-69
2023/07/17 03:59:24;;;;;;;19.75;12.27;;;;;;;19.72;69.07;99299.09;4958707;28;20057;-69
2023/07/17 04:01:50;;;;;;;21.15;12.38;;;;;;;19.90;68.59;99305.94;4942376;28;20046;-68
2023/07/17 04:04:15;;;;;;;13.55;10.75;;;;;;;20.11;68.16;99280.94;4959717;28;20394;-68
2023/07/17 04:06:40;;;;;;;19.08;11.98;;;;;;;20.29;67.52;99284.22;4942307;28;20046;-68
2023/07/17 04:09:06;;;;;;;20.00;12.50;;;;;;;20.36;67.07;99287.06;4959802;28;20053;-68
2023/07/17 04:11:31;;;;;;;17.55;12.50;;;;;;;20.35;66.59;99285.38;4959861;28;20528;-68
2023/07/17 04:13:57;;;;;;;15.32;12.13;;;;;;;20.36;66.22;99286.22;4974755;28;20046;-68
2023/07/17 04:16:25;;;;;;;16.08;12.15;;;;;;;20.50;66.42;99301.69;4942200;28;20050;-68
2023/07/17 04:18:51;;;;;;;19.98;11.65;;;;;;;20.64;65.57;99279.22;4974650;28;20053;-67
2023/07/17 04:21:16;;;;;;;16.55;10.95;;;;;;;20.79;65.21;99290.91;4974783;28;20394;-68
2023/07/17 04:23:42;;;;;;;13.02;10.25;;;;;;;20.92;64.59;99277.59;4974313;28;20046;-69
2023/07/17 04:26:11;;;;;;;16.90;11.65;;;;;;;21.07;64.33;99283.03;4974379;28;20413;-68
2023/07/17 04:28:37;;;;;;;14.10;11.27;;;;;;;21.20;63.63;99285.97;4957371;28;20050;-69
2023/07/17 04:31:03;;;;;;;24.52;11.40;;;;;;;21.37;62.96;99290.19;4974471;28;20486;-70
2023/07/17 04:33:30;;;;;;;17.42;11.70;;;;;;;21.53;62.22;99321.72;4974210;28;20046;-67
2023/07/17 04:35:57;;;;;;;16.90;10.90;;;;;;;21.76;62.02;99293.63;4957627;28;20057;-68
2023/07/17 04:38:22;;;;;;;14.77;11.18;;;;;;;21.96;61.31;99289.25;4974323;28;20042;-68
2023/07/17 04:40:48;;;;;;;13.15;10.88;;;;;;;22.14;61.18;99292.41;4974197;28;20057;-69
2023/07/17 04:43:13;;;;;;;15.40;11.77;;;;;;;22.35;60.77;99295.16;4974078;28;20054;-69
2023/07/17 04:45:42;;;;;;;16.83;11.52;;;;;;;22.66;59.39;99283.13;4973857;28;20046;-68
2023/07/17 04:48:11;;;;;;;18.50;10.73;;;;;;;22.94;58.21;99294.03;4941949;28;20038;-68
2023/07/17 04:50:36;;;;;;;16.77;10.57;;;;;;;23.29;58.09;99325.69;4973878;28;20056;-68
2023/07/17 04:53:01;;;;;;;13.07;9.75;;;;;;;23.76;56.82;99294.16;4957255;28;20069;-69
2023/07/17 04:55:26;;;;;;;15.18;10.20;;;;;;;24.16;55.69;99292.41;4958708;28;20477;-69
2023/07/17 04:57:51;;;;;;;15.75;10.07;;;;;;;24.47;55.11;99298.19;4958729;28;20042;-69
2023/07/17 05:00:20;;;;;;;15.57;9.07;;;;;;;24.79;53.94;99255.63;4973301;28;20050;-68
2023/07/17 05:02:46;;;;;;;12.90;9.13;;;;;;;25.11;53.50;99304.94;4973785;28;20054;-69
2023/07/17 05:05:12;;;;;;;11.80;9.13;;;;;;;25.41;52.20;99295.22;4941223;28;20053;-68
2023/07/17 05:07:40;;;;;;;14.73;8.93;;;;;;;25.58;50.92;99317.47;4973522;28;20077;-69
2023/07/17 05:10:07;;;;;;;11.00;9.10;;;;;;;25.81;50.76;99285.06;4973300;28;20042;-69
2023/07/17 05:12:33;;;;;;;12.40;8.38;;;;;;;26.11;49.99;99296.25;4941300;28;20046;-70
2023/07/17 05:14:58;;;;;;;14.88;8.80;;;;;;;26.27;48.99;99278.53;4973372;28;20049;-69
2023/07/17 05:17:24;;;;;;;13.98;9.35;;;;;;;26.29;47.98;99287.38;4973453;28;20042;-69
2023/07/17 05:19:49;;;;;;;13.68;8.50;;;;;;;26.32;48.74;99286.91;4940906;28;20049;-69
2023/07/17 05:22:14;;;;;;;11.85;8.30;;;;;;;26.45;48.16;99286.00;4973693;28;20054;-69
2023/07/17 05:24:40;;;;;;;12.43;9.90;;;;;;;26.62;48.24;99281.69;4973464;28;20034;-68
2023/07/17 05:27:05;;;;;;;15.95;8.63;;;;;;;26.74;47.79;99282.66;4957390;28;20405;-68
2023/07/17 05:29:31;;;;;;;14.55;9.20;;;;;;;26.70;46.74;99284.97;4956889;28;20046;-69
2023/07/17 05:31:57;;;;;;;11.70;8.70;;;;;;;26.69;46.86;99305.19;4937175;28;20059;-68
2023/07/17 05:34:22;;;;;;;10.93;7.78;;;;;;;26.79;47.18;99281.97;4953836;28;20053;-69
2023/07/17 05:36:47;;;;;;;10.77;8.23;;;;;;;26.94;46.46;99280.59;4937718;28;20579;-67
2023/07/17 05:39:13;;;;;;;11.25;7.78;;;;;;;27.33;46.31;99278.53;4939131;28;20477;-68
2023/07/17 05:41:38;;;;;;;11.23;8.18;;;;;;;27.79;45.55;99270.66;4973218;28;20046;-69
2023/07/17 05:44:03;;;;;;;10.90;8.52;;;;;;;28.27;44.97;99279.97;4973024;28;20038;-67
2023/07/17 05:46:28;;;;;;;11.70;7.28;;;;;;;28.68;43.36;99282.69;4957863;28;20054;-68
2023/07/17 05:48:53;;;;;;;12.45;7.80;;;;;;;28.85;42.39;99289.22;4972800;28;20049;-68
2023/07/17 05:51:19;;;;;;;11.70;8.45;;;;;;;28.98;42.00;99274.44;4972584;28;20449;-69
2023/07/17 05:53:44;;;;;;;10.35;7.70;;;;;;;29.30;41.44;99291.38;4958046;28;20046;-68
2023/07/17 05:56:11;;;;;;;11.52;8.55;;;;;;;29.75;41.25;99269.63;4957960;28;20069;-69
2023/07/17 05:58:39;;;;;;;9.25;7.68;;;;;;;30.21;40.50;99276.06;4940567;28;20068;-70
2023/07/17 06:01:04;;;;;;;15.43;7.30;;;;;;;30.77;39.14;99264.19;4973019;28;20050;-68
2023/07/17 06:03:30;;;;;;;12.57;6.68;;;;;;;31.17;37.95;99271.44;4972786;28;20057;-69
2023/07/17 06:05:55;;;;;;;11.80;7.53;;;;;;;31.78;37.34;99262.13;4957405;28;20042;-68
2023/07/17 06:08:20;;;;;;;8.52;6.65;;;;;;;32.33;36.54;99269.41;4957522;28;20408;-68
2023/07/17 06:10:46;;;;;;;8.77;7.00;;;;;;;32.96;35.18;99276.91;4956962;28;20053;-67
2023/07/17 06:13:12;;;;;;;10.77;6.60;;;;;;;33.44;33.99;99248.25;4940163;28;20054;-68
2023/07/17 06:15:38;;;;;;;6.63;5.93;;;;;;;33.86;33.24;99258.47;4957362;28;20073;-68
2023/07/17 06:18:03;;;;;;;7.88;5.68;;;;;;;34.54;32.22;99259.19;4957392;28;20063;-70
2023/07/17 06:20:28;;;;;;;9.27;6.78;;;;;;;35.25;30.92;99251.75;4955672;28;20077;-68
2023/07/17 06:22:54;;;;;;;7.88;5.57;;;;;;;36.01;29.73;99247.88;4955962;28;20050;-67
2023/07/17 06:25:19;;;;;;;13.75;5.95;;;;;;;36.33;28.48;99266.91;4971755;28;20061;-67
2023/07/17 06:27:44;;;;;;;5.78;5.20;;;;;;;36.77;27.94;99250.22;4956903;28;20382;-67
2023/07/17 06:30:10;;;;;;;9.20;5.47;;;;;;;37.30;27.00;99262.25;4956907;28;20042;-69
2023/07/17 06:32:35;;;;;;;7.93;6.15;;;;;;;37.64;26.77;99237.16;4956929;28;20045;-69
2023/07/17 06:35:01;;;;;;;8.02;6.05;;;;;;;38.00;26.69;99248.66;4957192;28;20477;-69
2023/07/17 06:37:27;;;;;;;9.10;6.43;;;;;;;38.47;25.88;99239.38;4956936;28;20039;-68
2023/07/17 06:39:52;;;;;;;7.80;6.13;;;;;;;38.66;25.28;99241.31;4955321;28;20050;-67
2023/07/17 06:42:17;;;;;;;15.35;6.32;;;;;;;38.88;24.90;99229.53;4956735;28;20046;-68
2023/07/17 06:44:42;;;;;;;6.40;5.80;;;;;;;38.77;24.93;99246.41;4956782;28;20046;-68
2023/07/17 06:47:08;;;;;;;7.03;6.28;;;;;;;38.94;25.19;99225.53;4954992;28;20152;-69
2023/07/17 06:49:35;;;;;;;9.52;6.80;;;;;;;39.20;24.78;99229.50;4956839;28;20477;-67
2023/07/17 06:52:01;;;;;;;8.55;6.55;;;;;;;39.49;24.09;99252.41;4956520;28;20053;-69
2023/07/17 06:54:26;;;;;;;8.48;6.10;;;;;;;39.79;24.27;99234.22;4956607;28;20046;-68
2023/07/17 06:56:51;;;;;;;10.52;7.05;;;;;;;40.24;23.75;99223.19;4954773;28;20061;-68
2023/07/17 06:59:17;;;;;;;9.93;7.10;;;;;;;40.76;23.38;99224.47;4955248;28;20047;-68
2023/07/17 07:01:43;;;;;;;7.25;6.55;;;;;;;41.10;22.41;99220.22;4971082;28;20061;-69
2023/07/17 07:04:08;;;;;;;8.52;6.72;;;;;;;41.47;22.35;99216.16;4954665;28;20057;-68
2023/07/17 07:06:33;;;;;;;7.55;6.75;;;;;;;41.88;21.82;99213.00;4955102;28;20042;-68
2023/07/17 07:08:58;;;;;;;8.82;6.72;;;;;;;42.17;21.71;99212.44;4954692;28;20054;-69
2023/07/17 07:11:24;;;;;;;11.02;7.35;;;;;;;42.31;21.12;99213.94;4955057;28;20053;-69
2023/07/17 07:13:49;;;;;;;9.10;7.03;;;;;;;42.57;20.99;99199.91;4954940;28;20054;-69
2023/07/17 07:16:14;;;;;;;8.48;7.53;;;;;;;43.00;20.97;99210.28;4956446;28;20046;-69
2023/07/17 07:18:39;;;;;;;7.55;6.80;;;;;;;43.42;20.21;99181.25;4955961;28;20050;-69
2023/07/17 07:21:04;;;;;;;8.90;8.07;;;;;;;43.87;20.15;99177.03;4956212;28;20042;-70
2023/07/17 07:23:29;;;;;;;10.43;7.65;;;;;;;44.53;19.57;99174.41;4955256;28;20046;-70
2023/07/17 07:25:55;;;;;;;9.23;7.43;;;;;;;45.05;19.13;99174.66;4937915;28;20046;-70
2023/07/17 07:28:21;;;;;;;8.82;8.10;;;;;;;45.49;18.59;99187.06;4955922;28;20046;-69
2023/07/17 07:30:46;;;;;;;9.30;8.45;;;;;;;45.09;18.81;99224.28;4955950;28;20501;-69
2023/07/17 07:33:12;;;;;;;9.77;8.85;;;;;;;44.66;19.11;99176.91;4970965;28;20497;-69
2023/07/17 07:35:37;;;;;;;8.95;8.15;;;;;;;44.77;19.41;99180.13;4955884;28;20497;-69
2023/07/17 07:38:02;;;;;;;9.32;8.35;;;;;;;45.15;18.96;99179.91;4955898;28;20050;-69
2023/07/17 07:40:28;;;;;;;9.77;8.60;;;;;;;45.49;18.50;99185.03;4956117;28;20038;-69
2023/07/17 07:42:53;;;;;;;10.32;9.32;;;;;;;45.82;18.49;99175.69;4956063;28;20057;-69
2023/07/17 07:45:20;;;;;;;12.48;9.50;;;;;;;46.01;18.08;99175.91;4955692;28;20034;-69
2023/07/17 07:47:46;;;;;;;11.95;9.40;;;;;;;46.25;18.72;99167.38;4954132;28;20062;-68
2023/07/17 07:50:11;;;;;;;9.90;9.10;;;;;;;46.60;18.07;99164.78;4955568;28;20034;-69
2023/07/17 07:52:37;;;;;;;10.43;9.50;;;;;;;46.83;18.11;99150.94;4955806;28;20631;-70
2023/07/17 07:55:03;;;;;;;13.02;9.82;;;;;;;46.83;17.98;99147.28;4955578;28;20409;-69
2023/07/17 07:57:30;;;;;;;10.90;10.10;;;;;;;47.01;17.40;99148.59;4955552;28;20070;-70
2023/07/17 07:59:55;;;;;;;11.45;10.45;;;;;;;47.23;17.11;99138.66;4955815;28;20039;-71
2023/07/17 08:02:20;;;;;;;12.40;11.50;;;;;;;47.97;17.19;99150.97;4955797;28;20050;-71
2023/07/17 08:04:46;;;;;;;11.68;10.80;;;;;;;48.58;16.54;99139.75;4970939;28;20045;-70
2023/07/17 08:07:11;;;;;;;13.32;12.30;;;;;;;49.01;16.10;99144.22;4955470;28;20046;-70
2023/07/17 08:09:38;;;;;;;13.63;12.52;;;;;;;49.32;16.10;99148.00;4970493;28;20057;-71
2023/07/17 08:12:04;;;;;;;14.00;13.00;;;;;;;49.63;15.81;99132.72;4955927;28;20053;-71
2023/07/17 08:14:29;;;;;;;14.25;13.25;;;;;;;50.01;15.34;99128.81;4971027;28;20042;-71
2023/07/17 08:16:55;;;;;;;14.25;13.05;;;;;;;50.35;15.22;99127.63;4955705;28;20054;-71
2023/07/17 08:19:20;;;;;;;15.88;14.88;;;;;;;50.41;15.32;99125.28;4956089;28;20873;-70
2023/07/17 08:21:46;;;;;;;16.63;15.55;;;;;;;50.13;15.08;99122.88;4971104;28;20054;-71
2023/07/17 08:24:12;;;;;;;16.10;14.90;;;;;;;48.98;15.71;99113.84;4954697;28;20409;-68
2023/07/17 08:26:40;;;;;;;15.85;14.68;;;;;;;48.73;16.32;99121.03;4970570;28;20046;-69
2023/07/17 08:29:06;;;;;;;15.95;14.43;;;;;;;49.23;16.19;99121.94;4955375;28;20042;-69
2023/07/17 08:31:32;;;;;;;18.05;14.75;;;;;;;49.82;15.41;99114.75;4953755;28;20061;-72
2023/07/17 08:34:01;;;;;;;16.13;15.02;;;;;;;50.43;14.63;99120.06;4953257;28;20046;-69
2023/07/17 08:36:31;;;;;;;16.70;15.60;;;;;;;50.82;13.83;99117.63;4959035;28;20501;-70
2023/07/17 08:38:57;;;;;;;17.20;16.13;;;;;;;51.08;14.47;99114.66;4959046;28;20039;-68
2023/07/17 08:41:22;;;;;;;18.35;16.98;;;;;;;51.44;13.91;99115.78;4959115;28;20527;-71
2023/07/17 08:43:52;;;;;;;17.13;16.02;;;;;;;51.74;13.35;99118.41;4958916;28;20046;-71
2023/07/17 08:46:17;;;;;;;18.88;17.77;;;;;;;51.86;13.33;99111.56;4959258;28;20718;-72
2023/07/17 08:48:43;;;;;;;20.17;19.08;;;;;;;52.00;12.95;99105.16;4959087;28;20043;-71
2023/07/17 08:51:12;;;;;;;23.63;21.88;;;;;;;52.40;13.00;99149.63;4958728;28;20042;-72
2023/07/17 08:53:42;;;;;;;22.40;21.10;;;;;;;52.73;13.08;99128.59;4957485;28;20050;-72
2023/07/17 08:56:08;;;;;;;21.27;20.05;;;;;;;52.14;13.03;99110.91;4957244;28;20058;-72
2023/07/17 08:58:34;;;;;;;20.30;18.92;;;;;;;51.38;14.02;99105.16;4958963;28;20049;-71
2023/07/17 09:01:00;;;;;;;21.35;20.15;;;;;;;51.37;13.32;99100.69;4959103;28;20046;-71
2023/07/17 09:03:26;;;;;;;20.25;18.95;;;;;;;51.83;13.42;99087.59;4954959;28;20073;-71
2023/07/17 09:05:51;;;;;;;20.83;19.73;;;;;;;52.26;12.80;99082.13;4949539;28;20042;-72
2023/07/17 09:08:16;;;;;;;24.30;22.67;;;;;;;52.47;12.83;99090.72;4958698;28;20054;-72
2023/07/17 09:10:42;;;;;;;24.38;22.98;;;;;;;52.78;12.80;99088.34;4958797;28;20042;-72
2023/07/17 09:13:07;;;;;;;27.85;26.30;;;;;;;53.25;12.59;99087.16;4940996;28;20053;-72
2023/07/17 09:15:33;;;;;;;28.85;27.33;;;;;;;53.40;12.50;99102.19;4957247;28;20057;-72
2023/07/17 09:17:59;;;;;;;31.50;29.90;;;;;;;53.63;12.22;99094.00;4956544;28;20524;-72
2023/07/17 09:20:24;;;;;;;32.97;31.13;;;;;;;53.97;12.33;99086.59;4958263;28;20050;-72
2023/07/17 09:22:53;;;;;;;34.10;32.47;;;;;;;54.29;11.73;99082.81;4956810;28;20058;-72
2023/07/17 09:25:19;;;;;;;37.78;35.88;;;;;;;54.55;11.99;99084.28;4958385;28;20100;-71
2023/07/17 09:27:51;;;;;;;38.88;36.97;;;;;;;55.08;11.66;99081.03;4956855;28;20058;-73
2023/07/17 09:30:27;;;;;;;44.10;41.70;;;;;;;54.42;12.09;99085.97;4958496;28;20046;-72
2023/07/17 09:32:53;;;;;;;39.03;37.13;;;;;;;53.20;12.20;99061.91;4957310;28;20042;-72
2023/07/17 09:35:19;;;;;;;44.33;42.05;;;;;;;53.41;12.31;99072.47;4958130;28;20046;-72
2023/07/17 09:37:46;;;;;;;40.60;38.53;;;;;;;54.08;12.18;99074.31;4958016;28;20053;-73
2023/07/17 09:40:14;;;;;;;42.63;40.30;;;;;;;54.77;11.73;99079.22;4957861;28;20038;-73
2023/07/17 09:42:53;;;;;;;48.00;45.72;;;;;;;55.48;10.94;99075.78;4957899;28;20050;-74
2023/07/17 09:45:19;;;;;;;52.42;49.75;;;;;;;55.68;11.33;99093.91;4957666;28;20038;-74
2023/07/17 09:47:48;;;;;;;56.38;53.58;;;;;;;55.71;10.82;99081.63;4957338;28;20513;-75
2023/07/17 09:50:14;;;;;;;56.78;54.17;;;;;;;55.85;11.05;99090.06;4957952;28;20043;-75
2023/07/17 09:52:43;;;;;;;63.92;61.10;;;;;;;56.08;10.55;99078.75;4958371;28;20239;-72
2023/07/17 09:55:08;;;;;;;61.88;58.97;;;;;;;56.14;10.55;99067.63;4973007;28;20045;-72
2023/07/17 09:57:39;;;;;;;61.20;58.20;;;;;;;56.31;10.67;99063.72;4957620;28;20065;-72
2023/07/17 10:00:17;;;;;;;65.25;62.25;;;;;;;56.61;10.66;99080.03;4957726;28;20038;-72
2023/07/17 10:03:06;;;;;;;67.15;64.25;;;;;;;57.01;10.56;99065.91;4955913;28;20046;-71
2023/07/17 10:05:32;;;;;;;70.47;67.32;;;;;;;56.71;10.29;99064.78;4958216;28;20057;-71
2023/07/17 10:07:59;;;;;;;70.95;67.63;;;;;;;56.52;10.34;99051.16;4957665;28;20042;-72
2023/07/17 10:10:25;;;;;;;68.28;65.18;;;;;;;56.62;10.15;99050.16;4956076;28;20054;-73
2023/07/17 10:12:50;;;;;;;76.43;72.97;;;;;;;56.63;10.18;99042.38;4956160;28;20061;-72
2023/07/17 10:15:17;;;;;;;78.13;74.63;;;;;;;56.67;10.28;99046.81;4956720;28;20389;-73
2023/07/17 10:17:42;;;;;;;74.88;71.57;;;;;;;56.78;10.61;99044.59;4957602;28;20050;-73
2023/07/17 10:20:11;;;;;;;73.53;70.32;;;;;;;56.01;10.23;99035.91;4957707;28;20405;-73
2023/07/17 10:22:44;;;;;;;63.10;60.20;;;;;;;55.68;10.40;99002.41;4957906;28;20049;-73
2023/07/17 10:25:16;;;;;;;58.35;55.63;;;;;;;55.90;10.30;99006.63;4947797;28;20236;-72
2023/07/17 10:27:45;;;;;;;62.50;59.72;;;;;;;55.74;10.12;99006.47;4938537;28;20050;-73
2023/07/17 10:30:35;;;;;;;64.68;61.63;;;;;;;56.71;10.61;98998.88;4937919;28;20051;-72
2023/07/17 10:33:07;;;;;;;;;;;;;;;58.16;9.45;99017.34;4946133;28;20042;-73
2023/07/17 10:35:52;;;;;;;65.47;62.55;;;;;;;56.12;10.04;99001.44;4957551;28;19918;-72
2023/07/17 10:38:25;;;;;;;45.20;42.90;;;;;;;52.06;12.49;98978.41;4958814;28;20046;-70
2023/07/17 10:41:04;;;;;;;29.08;27.50;;;;;;;49.18;13.22;99000.50;4955605;28;20058;-74
2023/07/17 10:43:33;;;;;;;19.77;18.35;;;;;;;45.54;15.64;98961.56;4957132;28;20053;-73
2023/07/17 10:45:59;;;;;;;13.18;12.13;;;;;;;43.09;16.75;98951.00;4957637;28;20817;-71
2023/07/17 10:48:26;;;;;;;12.98;9.48;;;;;;;41.14;19.01;98956.41;4972328;28;20049;-70
2023/07/17 10:50:53;;;;;;;9.10;8.32;;;;;;;39.56;20.07;98956.25;4957273;28;20050;-71
2023/07/17 10:53:18;;;;;;;9.23;8.50;;;;;;;38.31;20.93;98944.69;4957113;28;20053;-70
2023/07/17 10:55:46;;;;;;;8.13;7.38;;;;;;;37.18;22.25;98941.31;4954810;28;20077;-71
2023/07/17 10:58:11;;;;;;;8.23;7.50;;;;;;;36.28;23.14;98942.97;4956566;28;20049;-72
2023/07/17 11:00:40;;;;;;;8.40;7.60;;;;;;;35.42;23.89;98949.25;4955237;28;20050;-72
2023/07/17 11:03:05;;;;;;;7.78;6.95;;;;;;;34.78;25.26;98982.56;4956618;28;20049;-75
2023/07/17 11:05:36;;;;;;;8.15;7.13;;;;;;;34.36;24.71;98953.34;4956484;28;20409;-75
2023/07/17 11:08:02;;;;;;;9.60;7.13;;;;;;;33.81;26.28;98940.41;4956853;28;20046;-75
2023/07/17 11:10:27;;;;;;;7.97;6.43;;;;;;;33.52;27.06;98935.41;4923854;28;20050;-71
2023/07/17 11:12:53;;;;;;;9.55;7.53;;;;;;;33.18;26.65;98932.31;4956421;28;20408;-72
2023/07/17 11:15:20;;;;;;;9.38;7.30;;;;;;;32.87;27.39;98941.63;4956822;28;20042;-71
2023/07/17 11:17:45;;;;;;;7.53;5.60;;;;;;;32.53;27.84;98937.59;4956923;28;20049;-71